createdAt,value
2019-04-30T00:01:55.903Z,19.37
2019-04-30T00:04:40.297Z,18.47
2019-04-30T00:07:10.243Z,19.13
2019-04-30T00:09:39.713Z,18.83
2019-04-30T00:12:09.136Z,19.67
2019-04-30T00:14:41.270Z,20.33
2019-04-30T00:17:10.732Z,18.93
2019-04-30T00:19:40.012Z,20.00
2019-04-30T00:22:09.223Z,19.40
2019-04-30T00:24:39.805Z,19.13
2019-04-30T00:27:09.283Z,19.70
2019-04-30T00:29:38.401Z,19.07
2019-04-30T00:32:08.034Z,19.30
2019-04-30T00:34:39.406Z,19.50
2019-04-30T00:37:13.740Z,18.97
2019-04-30T00:39:39.645Z,19.50
2019-04-30T00:42:08.880Z,20.27
2019-04-30T00:44:38.016Z,18.50
2019-04-30T00:47:08.391Z,20.23
2019-04-30T00:49:37.640Z,20.00
2019-04-30T00:52:06.776Z,19.97
2019-04-30T00:54:35.887Z,20.17
2019-04-30T00:57:07.663Z,21.40
2019-04-30T00:59:39.798Z,21.23
2019-04-30T01:02:19.928Z,20.30
2019-04-30T01:04:49.030Z,19.13
2019-04-30T01:07:18.256Z,20.77
2019-04-30T01:09:49.819Z,20.70
2019-04-30T01:12:27.701Z,21.47
2019-04-30T01:14:50.535Z,21.37
2019-04-30T01:17:19.655Z,21.40
2019-04-30T01:19:54.270Z,21.67
2019-04-30T01:22:27.771Z,21.97
2019-04-30T01:24:52.369Z,20.53
2019-04-30T01:27:21.582Z,22.90
2019-04-30T01:29:50.973Z,22.03
2019-04-30T01:32:21.085Z,23.30
2019-04-30T01:34:53.810Z,23.60
2019-04-30T01:37:28.678Z,20.90
2019-04-30T01:39:52.145Z,21.00
2019-04-30T01:42:21.401Z,22.90
2019-04-30T01:44:53.632Z,23.60
2019-04-30T01:47:27.798Z,22.53
2019-04-30T01:49:55.922Z,22.13
2019-04-30T01:52:23.240Z,23.07
2019-04-30T01:54:52.357Z,22.53
2019-04-30T01:57:32.620Z,22.50
2019-04-30T02:00:06.083Z,20.40
2019-04-30T02:02:36.113Z,20.33
2019-04-30T02:05:08.803Z,21.40
2019-04-30T02:07:40.150Z,21.53
2019-04-30T02:10:08.879Z,21.20
2019-04-30T02:12:39.275Z,20.70
2019-04-30T02:15:09.479Z,20.17
2019-04-30T02:17:38.904Z,20.43
2019-04-30T02:20:08.979Z,20.40
2019-04-30T02:22:38.980Z,20.90
2019-04-30T02:25:09.633Z,22.30
2019-04-30T02:27:39.118Z,21.80
2019-04-30T02:30:11.185Z,20.60
2019-04-30T02:32:40.708Z,20.90
2019-04-30T02:35:25.120Z,20.90
2019-04-30T02:38:12.125Z,22.77
2019-04-30T02:40:42.644Z,22.03
2019-04-30T02:43:12.499Z,21.47
2019-04-30T02:45:42.265Z,23.10
2019-04-30T02:48:12.112Z,21.20
2019-04-30T02:50:42.832Z,21.37
2019-04-30T02:53:50.458Z,21.67
2019-04-30T02:56:21.554Z,22.00
2019-04-30T02:58:50.950Z,21.07
2019-04-30T03:01:20.609Z,18.80
2019-04-30T03:03:50.314Z,20.23
2019-04-30T03:06:23.142Z,22.40
2019-04-30T03:08:51.421Z,20.60
2019-04-30T03:11:21.076Z,19.70
2019-04-30T03:13:50.356Z,19.30
2019-04-30T03:16:23.772Z,18.90
2019-04-30T03:19:10.760Z,18.50
2019-04-30T03:21:42.925Z,18.07
2019-04-30T03:24:12.121Z,18.80
2019-04-30T03:26:41.254Z,16.60
2019-04-30T03:29:11.521Z,18.70
2019-04-30T03:31:44.070Z,19.37
2019-04-30T03:34:18.307Z,18.17
2019-04-30T03:36:42.771Z,18.90
2019-04-30T03:39:11.956Z,19.37
2019-04-30T03:41:41.724Z,17.87
2019-04-30T03:44:21.846Z,19.50
2019-04-30T03:46:41.882Z,17.57
2019-04-30T03:49:13.388Z,18.20
2019-04-30T03:51:42.015Z,16.53
2019-04-30T03:54:11.276Z,18.10
2019-04-30T03:56:41.370Z,15.53
2019-04-30T03:59:11.001Z,16.17
2019-04-30T04:01:59.583Z,14.83
2019-04-30T04:04:52.682Z,14.03
2019-04-30T04:07:30.014Z,15.70
2019-04-30T04:10:11.703Z,16.37
2019-04-30T04:12:40.820Z,15.60
2019-04-30T04:15:10.605Z,15.37
2019-04-30T04:17:40.045Z,16.40
2019-04-30T04:20:10.665Z,16.37
2019-04-30T04:22:40.479Z,18.87
2019-04-30T04:25:13.325Z,17.87
2019-04-30T04:27:41.143Z,19.00
2019-04-30T04:30:10.874Z,18.23
2019-04-30T04:32:40.891Z,18.07
2019-04-30T04:35:12.745Z,17.77
2019-04-30T04:37:41.287Z,18.57
2019-04-30T04:40:10.766Z,20.73
2019-04-30T04:42:39.884Z,20.40
2019-04-30T04:45:09.892Z,20.37
2019-04-30T04:47:40.141Z,20.47
2019-04-30T04:50:10.703Z,21.30
2019-04-30T04:52:39.883Z,21.07
2019-04-30T04:55:10.022Z,20.20
2019-04-30T04:57:40.223Z,21.07
2019-04-30T05:00:10.488Z,21.80
2019-04-30T05:02:50.616Z,21.70
2019-04-30T05:05:19.908Z,21.70
2019-04-30T05:07:49.034Z,21.10
2019-04-30T05:10:19.245Z,21.50
2019-04-30T05:12:50.599Z,22.50
2019-04-30T05:15:19.578Z,22.00
2019-04-30T05:17:49.449Z,21.17
2019-04-30T05:20:19.490Z,20.30
2019-04-30T05:22:49.003Z,23.90
2019-04-30T05:25:18.800Z,24.80
2019-04-30T05:27:48.875Z,23.60
2019-04-30T05:30:20.006Z,23.50
2019-04-30T05:32:50.848Z,23.60
2019-04-30T05:35:20.212Z,23.57
2019-04-30T05:37:49.589Z,24.97
2019-04-30T05:40:19.040Z,23.87
2019-04-30T05:42:49.647Z,25.00
2019-04-30T05:45:19.410Z,26.07
2019-04-30T05:47:50.492Z,23.17
2019-04-30T05:50:20.104Z,25.30
2019-04-30T05:52:49.505Z,24.37
2019-04-30T05:55:19.871Z,24.03
2019-04-30T05:57:55.991Z,22.37
2019-04-30T06:00:20.133Z,26.60
2019-04-30T06:02:50.614Z,24.10
2019-04-30T06:05:19.917Z,25.60
2019-04-30T06:07:49.575Z,24.07
2019-04-30T06:10:39.606Z,24.37
2019-04-30T06:13:16.041Z,23.97
2019-04-30T06:15:52.128Z,23.87
2019-04-30T06:18:21.376Z,23.60
2019-04-30T06:20:50.519Z,24.10
2019-04-30T06:23:19.729Z,24.50
2019-04-30T06:25:59.469Z,24.90
2019-04-30T06:28:23.065Z,24.10
2019-04-30T06:30:52.682Z,25.07
2019-04-30T06:33:21.860Z,22.97
2019-04-30T06:35:51.841Z,25.40
2019-04-30T06:38:21.036Z,25.33
2019-04-30T06:40:50.208Z,25.03
2019-04-30T06:43:21.532Z,25.13
2019-04-30T06:45:52.148Z,23.17
2019-04-30T06:48:22.087Z,26.90
2019-04-30T06:50:51.305Z,22.67
2019-04-30T06:53:20.446Z,24.20
2019-04-30T06:55:49.792Z,24.97
2019-04-30T06:58:20.498Z,24.07
2019-04-30T07:00:49.868Z,22.87
2019-04-30T07:03:19.291Z,25.03
2019-04-30T07:05:48.971Z,24.17
2019-04-30T07:08:42.144Z,21.87
2019-04-30T07:11:31.765Z,22.30
2019-04-30T07:14:00.905Z,21.77
2019-04-30T07:16:30.095Z,23.07
2019-04-30T07:18:59.227Z,21.43
2019-04-30T07:21:31.218Z,22.33
2019-04-30T07:23:59.670Z,21.60
2019-04-30T07:26:29.285Z,21.53
2019-04-30T07:29:02.249Z,20.80
2019-04-30T07:31:29.719Z,23.10
2019-04-30T07:33:59.463Z,23.10
2019-04-30T07:36:43.499Z,21.87
2019-04-30T07:39:00.146Z,22.47
2019-04-30T07:41:31.234Z,23.53
2019-04-30T07:44:00.410Z,23.37
2019-04-30T07:46:30.141Z,21.27
2019-04-30T07:49:00.411Z,23.10
2019-04-30T07:51:31.904Z,23.57
2019-04-30T07:54:00.421Z,22.77
2019-04-30T07:56:37.390Z,23.33
2019-04-30T07:59:02.669Z,24.60
2019-04-30T08:01:31.312Z,24.97
2019-04-30T08:04:22.759Z,24.60
2019-04-30T08:06:51.981Z,22.30
2019-04-30T08:09:22.253Z,23.50
2019-04-30T08:11:51.571Z,21.97
2019-04-30T08:14:21.228Z,21.97
2019-04-30T08:16:51.143Z,23.83
2019-04-30T08:19:20.504Z,22.90
2019-04-30T08:21:49.751Z,22.20
2019-04-30T08:24:19.343Z,21.47
2019-04-30T08:26:49.391Z,21.43
2019-04-30T08:29:19.510Z,21.67
2019-04-30T08:31:49.028Z,22.70
2019-04-30T08:34:20.087Z,23.27
2019-04-30T08:36:49.163Z,20.70
2019-04-30T08:39:19.729Z,21.70
2019-04-30T08:41:49.342Z,21.40
2019-04-30T08:44:20.811Z,22.53
2019-04-30T08:46:49.572Z,23.53
2019-04-30T08:49:20.856Z,24.37
2019-04-30T08:51:50.395Z,24.17
2019-04-30T08:54:20.292Z,24.70
2019-04-30T08:56:50.379Z,25.73
2019-04-30T08:59:19.664Z,23.30
2019-04-30T09:01:48.819Z,23.97
2019-04-30T09:04:19.964Z,24.20
2019-04-30T09:06:49.611Z,22.40
2019-04-30T09:09:20.811Z,23.37
2019-04-30T09:11:55.164Z,24.27
2019-04-30T09:14:20.913Z,23.50
2019-04-30T09:16:51.337Z,22.30
2019-04-30T09:19:21.283Z,22.90
2019-04-30T09:21:50.597Z,23.67
2019-04-30T09:24:19.824Z,22.17
2019-04-30T09:26:49.345Z,22.47
2019-04-30T09:29:19.124Z,22.00
2019-04-30T09:31:49.297Z,22.87
2019-04-30T09:34:21.037Z,22.73
2019-04-30T09:36:49.525Z,26.00
2019-04-30T09:39:22.858Z,21.20
2019-04-30T09:41:50.687Z,21.53
2019-04-30T09:44:19.873Z,25.13
2019-04-30T09:46:49.044Z,22.27
2019-04-30T09:49:19.479Z,22.37
2019-04-30T09:51:49.821Z,23.27
2019-04-30T09:54:20.257Z,22.80
2019-04-30T09:56:52.615Z,22.63
2019-04-30T09:59:20.810Z,22.43
2019-04-30T10:01:49.963Z,23.23
2019-04-30T10:04:20.463Z,23.87
2019-04-30T10:06:50.232Z,23.37
2019-04-30T10:09:19.767Z,23.27
2019-04-30T10:11:59.784Z,22.90
2019-04-30T10:14:28.924Z,22.67
2019-04-30T10:17:06.821Z,23.37
2019-04-30T10:19:36.052Z,24.67
2019-04-30T10:22:05.512Z,20.73
2019-04-30T10:24:34.671Z,23.50
2019-04-30T10:27:06.911Z,25.50
2019-04-30T10:29:35.155Z,23.63
2019-04-30T10:32:04.452Z,23.20
2019-04-30T10:34:33.624Z,23.63
2019-04-30T10:37:03.083Z,24.10
2019-04-30T10:39:32.401Z,22.87
2019-04-30T10:42:01.614Z,24.17
2019-04-30T10:44:30.839Z,24.30
2019-04-30T10:47:00.059Z,23.23
2019-04-30T10:49:29.338Z,21.70
2019-04-30T10:52:01.182Z,22.77
2019-04-30T10:54:30.482Z,22.40
2019-04-30T10:56:59.653Z,20.60
2019-04-30T10:59:28.799Z,22.60
2019-04-30T11:01:59.214Z,22.17
2019-04-30T11:04:28.736Z,21.40
2019-04-30T11:07:00.156Z,23.63
2019-04-30T11:09:31.033Z,22.80
2019-04-30T11:12:03.071Z,21.97
2019-04-30T11:14:33.000Z,22.10
2019-04-30T11:17:02.383Z,22.60
2019-04-30T11:19:32.058Z,21.67
2019-04-30T11:22:01.415Z,21.57
2019-04-30T11:24:38.145Z,21.07
2019-04-30T11:27:02.410Z,20.23
2019-04-30T11:29:32.004Z,20.60
2019-04-30T11:32:07.677Z,19.67
2019-04-30T11:34:37.167Z,21.03
2019-04-30T11:37:06.314Z,20.63
2019-04-30T11:39:36.712Z,20.10
2019-04-30T11:42:06.063Z,22.27
2019-04-30T11:44:35.194Z,20.10
2019-04-30T11:47:24.342Z,19.73
2019-04-30T11:49:53.692Z,20.43
2019-04-30T11:52:23.335Z,21.40
2019-04-30T11:54:54.618Z,19.80
2019-04-30T11:57:23.357Z,19.10
2019-04-30T11:59:52.717Z,19.50
2019-04-30T12:02:32.501Z,18.97
2019-04-30T12:05:01.769Z,18.40
2019-04-30T12:07:54.487Z,16.47
2019-04-30T12:10:30.850Z,16.90
2019-04-30T12:13:00.100Z,16.50
2019-04-30T12:15:29.339Z,17.40
2019-04-30T12:17:58.495Z,17.57
2019-04-30T12:20:27.748Z,18.27
2019-04-30T12:22:56.901Z,18.17
2019-04-30T12:25:26.115Z,17.20
2019-04-30T12:27:55.293Z,17.60
2019-04-30T12:30:24.912Z,18.23
2019-04-30T12:32:54.156Z,17.20
2019-04-30T12:35:23.405Z,18.23
2019-04-30T12:37:52.630Z,18.50
2019-04-30T12:40:28.865Z,17.43
2019-04-30T12:42:52.788Z,16.97
2019-04-30T12:45:22.090Z,18.87
2019-04-30T12:47:56.212Z,16.70
2019-04-30T12:50:39.228Z,15.43
2019-04-30T12:53:12.087Z,15.83
2019-04-30T12:55:51.463Z,16.87
2019-04-30T12:58:20.861Z,17.20
2019-04-30T13:00:50.224Z,16.43
2019-04-30T13:03:19.376Z,16.93
2019-04-30T13:05:50.650Z,19.00
2019-04-30T13:08:21.391Z,17.20
2019-04-30T13:10:51.000Z,16.93
2019-04-30T13:13:21.124Z,16.00
2019-04-30T13:15:50.546Z,14.40
2019-04-30T13:18:19.692Z,15.10
2019-04-30T13:20:49.227Z,14.30
2019-04-30T13:23:18.684Z,13.90
2019-04-30T13:25:51.240Z,15.23
2019-04-30T13:28:21.222Z,12.90
2019-04-30T13:30:51.567Z,14.13
2019-04-30T13:33:32.517Z,11.93
2019-04-30T13:36:01.644Z,9.77
2019-04-30T13:38:49.638Z,11.07
2019-04-30T13:41:30.133Z,9.90
2019-04-30T13:44:03.659Z,10.70
2019-04-30T13:46:32.883Z,10.30
2019-04-30T13:49:02.053Z,11.00
2019-04-30T13:51:31.201Z,10.30
2019-04-30T13:54:00.320Z,9.63
2019-04-30T13:56:29.507Z,11.33
2019-04-30T13:58:58.681Z,11.40
2019-04-30T14:01:29.456Z,10.63
2019-04-30T14:04:06.399Z,10.20
2019-04-30T14:06:38.899Z,10.67
2019-04-30T14:09:17.124Z,10.67
2019-04-30T14:11:46.292Z,9.43
2019-04-30T14:14:15.515Z,9.80
2019-04-30T14:16:44.724Z,9.63
2019-04-30T14:19:14.093Z,9.83
2019-04-30T14:21:43.349Z,9.53
2019-04-30T14:24:12.610Z,10.47
2019-04-30T14:26:41.861Z,9.53
2019-04-30T14:29:11.068Z,9.83
2019-04-30T14:31:40.209Z,9.90
2019-04-30T14:34:10.066Z,10.00
2019-04-30T14:36:39.398Z,9.70
2019-04-30T14:39:14.425Z,10.77
2019-04-30T14:41:41.249Z,9.63
2019-04-30T14:44:15.489Z,11.07
2019-04-30T14:47:04.339Z,9.57
2019-04-30T14:50:01.633Z,11.00
2019-04-30T14:52:23.220Z,9.30
2019-04-30T14:55:14.433Z,9.40
2019-04-30T14:58:02.608Z,9.23
2019-04-30T15:00:53.789Z,8.73
2019-04-30T15:03:23.904Z,7.50
2019-04-30T15:05:53.121Z,7.77
2019-04-30T15:08:22.316Z,7.53
2019-04-30T15:10:51.494Z,7.50
2019-04-30T15:13:20.644Z,9.70
2019-04-30T15:15:49.944Z,9.63
2019-04-30T15:18:19.289Z,9.63
2019-04-30T15:20:49.811Z,10.60
2019-04-30T15:23:44.165Z,10.23
2019-04-30T15:26:22.091Z,9.83
2019-04-30T15:28:44.401Z,10.20
2019-04-30T15:31:13.646Z,10.33
2019-04-30T15:34:03.174Z,8.63
2019-04-30T15:36:32.560Z,8.40
2019-04-30T15:39:30.855Z,7.03
2019-04-30T15:42:00.258Z,6.20
2019-04-30T15:44:29.597Z,6.80
2019-04-30T15:47:00.573Z,7.70
2019-04-30T15:49:29.776Z,7.17
2019-04-30T15:51:58.961Z,7.13
2019-04-30T15:54:29.266Z,8.30
2019-04-30T15:57:00.407Z,7.23
2019-04-30T15:59:34.384Z,6.90
2019-04-30T16:02:09.175Z,7.30
2019-04-30T16:04:55.956Z,7.27
2019-04-30T16:07:25.185Z,7.80
2019-04-30T16:10:01.723Z,8.43
2019-04-30T16:12:45.275Z,7.33
2019-04-30T16:15:14.738Z,7.07
2019-04-30T16:17:46.005Z,7.80
2019-04-30T16:20:16.310Z,7.97
2019-04-30T16:22:45.526Z,8.60
2019-04-30T16:25:14.708Z,8.07
2019-04-30T16:27:43.833Z,8.27
2019-04-30T16:30:13.641Z,8.60
2019-04-30T16:32:42.882Z,7.13
2019-04-30T16:35:12.100Z,8.20
2019-04-30T16:37:41.244Z,7.43
2019-04-30T16:40:10.577Z,6.83
2019-04-30T16:42:39.836Z,8.00
2019-04-30T16:45:09.408Z,7.60
2019-04-30T16:47:38.821Z,7.73
2019-04-30T16:50:09.128Z,7.73
2019-04-30T16:52:39.390Z,8.80
2019-04-30T16:55:09.288Z,8.67
2019-04-30T16:57:39.654Z,8.20
2019-04-30T17:00:10.697Z,8.30
2019-04-30T17:02:41.861Z,8.10
2019-04-30T17:05:33.390Z,8.00
2019-04-30T17:08:30.417Z,9.80
2019-04-30T17:11:09.380Z,10.10
2019-04-30T17:13:55.521Z,10.23
2019-04-30T17:16:25.104Z,10.33
2019-04-30T17:18:54.494Z,10.10
2019-04-30T17:21:23.647Z,10.57
2019-04-30T17:23:52.819Z,10.70
2019-04-30T17:26:21.968Z,11.53
2019-04-30T17:28:51.180Z,10.23
2019-04-30T17:31:20.606Z,11.00
2019-04-30T17:33:49.834Z,10.10
2019-04-30T17:36:18.985Z,10.47
2019-04-30T17:38:48.149Z,10.20
2019-04-30T17:41:17.422Z,10.07
2019-04-30T17:43:46.596Z,10.37
2019-04-30T17:46:15.815Z,10.87
2019-04-30T17:48:44.943Z,9.63
2019-04-30T17:51:14.104Z,9.70
2019-04-30T17:54:00.900Z,9.60
2019-04-30T17:56:30.250Z,10.50
2019-04-30T17:58:59.373Z,9.77
2019-04-30T18:01:28.799Z,10.07
2019-04-30T18:03:58.820Z,9.10
2019-04-30T18:06:28.186Z,9.60
2019-04-30T18:08:57.415Z,9.50
2019-04-30T18:11:26.634Z,8.57
2019-04-30T18:13:55.885Z,10.97
2019-04-30T18:16:25.322Z,9.87
2019-04-30T18:19:00.168Z,11.23
2019-04-30T18:21:36.360Z,11.40
2019-04-30T18:24:39.979Z,10.40
2019-04-30T18:27:15.451Z,10.20
2019-04-30T18:29:44.776Z,10.10
2019-04-30T18:32:14.461Z,9.97
2019-04-30T18:34:43.725Z,11.00
2019-04-30T18:37:12.961Z,11.37
2019-04-30T18:39:42.164Z,11.13
2019-04-30T18:42:11.424Z,11.53
2019-04-30T18:44:42.051Z,10.57
2019-04-30T18:47:11.276Z,11.13
2019-04-30T18:49:40.481Z,11.13
2019-04-30T18:52:09.714Z,10.40
2019-04-30T18:54:39.722Z,11.20
2019-04-30T18:57:09.400Z,12.40
2019-04-30T18:59:39.698Z,13.77
2019-04-30T19:02:11.272Z,13.37
2019-04-30T19:04:40.972Z,12.90
2019-04-30T19:07:48.847Z,14.03
2019-04-30T19:10:36.013Z,13.00
2019-04-30T19:13:23.157Z,11.70
2019-04-30T19:16:19.862Z,13.80
2019-04-30T19:18:48.095Z,13.30
2019-04-30T19:21:17.348Z,13.10
2019-04-30T19:23:48.605Z,15.07
2019-04-30T19:26:19.255Z,14.83
2019-04-30T19:28:49.275Z,14.97
2019-04-30T19:31:19.990Z,16.00
2019-04-30T19:33:49.411Z,16.23
2019-04-30T19:36:20.890Z,16.47
2019-04-30T19:38:50.705Z,16.87
2019-04-30T19:41:20.076Z,15.73
2019-04-30T19:43:50.059Z,16.00
2019-04-30T19:46:19.654Z,15.83
2019-04-30T19:48:50.644Z,17.40
2019-04-30T19:51:19.887Z,15.13
2019-04-30T19:53:49.257Z,15.00
2019-04-30T19:56:20.552Z,15.00
2019-04-30T19:59:01.557Z,14.67
2019-04-30T20:01:20.939Z,14.00
2019-04-30T20:03:50.584Z,14.23
2019-04-30T20:06:19.773Z,16.20
2019-04-30T20:08:51.105Z,15.00
2019-04-30T20:11:20.362Z,15.10
2019-04-30T20:13:49.584Z,14.37
2019-04-30T20:16:19.562Z,14.67
2019-04-30T20:18:49.107Z,14.57
2019-04-30T20:21:28.349Z,14.43
2019-04-30T20:23:51.017Z,15.60
2019-04-30T20:26:20.286Z,15.17
2019-04-30T20:28:49.416Z,15.27
2019-04-30T20:31:19.054Z,14.93
2019-04-30T20:33:48.955Z,15.03
2019-04-30T20:36:19.000Z,15.20
2019-04-30T20:39:19.440Z,15.90
2019-04-30T20:41:52.091Z,16.53
2019-04-30T20:44:21.353Z,16.73
2019-04-30T20:46:51.989Z,15.47
2019-04-30T20:49:21.237Z,14.70
2019-04-30T20:51:55.651Z,15.78
2019-04-30T20:54:21.387Z,15.53
2019-04-30T20:56:50.976Z,15.60
2019-04-30T20:59:20.526Z,15.13
2019-04-30T21:01:49.773Z,16.13
2019-04-30T21:04:20.754Z,16.03
2019-04-30T21:06:51.128Z,15.20
2019-04-30T21:09:20.337Z,16.80
2019-04-30T21:11:49.571Z,16.30
2019-04-30T21:14:19.387Z,15.97
2019-04-30T21:16:48.689Z,20.67
2019-04-30T21:19:17.950Z,17.90
2019-04-30T21:21:47.104Z,17.40
2019-04-30T21:24:16.294Z,17.67
2019-04-30T21:26:45.465Z,18.23
2019-04-30T21:29:16.019Z,19.50
2019-04-30T21:32:03.021Z,18.80
2019-04-30T21:34:50.185Z,17.47
2019-04-30T21:37:19.441Z,17.63
2019-04-30T21:39:50.178Z,15.50
2019-04-30T21:42:19.560Z,18.60
2019-04-30T21:44:48.747Z,18.37
2019-04-30T21:47:17.951Z,19.90
2019-04-30T21:49:47.088Z,18.33
2019-04-30T21:52:16.292Z,17.07
2019-04-30T21:54:45.449Z,18.33
2019-04-30T21:57:14.553Z,20.13
2019-04-30T21:59:43.751Z,18.53
2019-04-30T22:02:12.964Z,19.10
2019-04-30T22:04:42.110Z,21.50
2019-04-30T22:07:11.253Z,22.53
2019-04-30T22:09:41.880Z,20.67
2019-04-30T22:12:11.024Z,19.13
2019-04-30T22:14:40.257Z,20.00
2019-04-30T22:17:09.486Z,19.27
2019-04-30T22:19:38.639Z,21.47
2019-04-30T22:22:09.379Z,19.53
2019-04-30T22:24:38.943Z,20.43
2019-04-30T22:27:08.381Z,20.10
2019-04-30T22:29:41.967Z,22.77
2019-04-30T22:32:09.371Z,21.30
2019-04-30T22:34:38.634Z,21.60
2019-04-30T22:37:08.537Z,20.07
2019-04-30T22:40:01.380Z,19.77
2019-04-30T22:42:32.921Z,22.30
2019-04-30T22:45:07.113Z,18.87
2019-04-30T22:47:36.447Z,19.80
2019-04-30T22:50:07.425Z,19.77
2019-04-30T22:52:36.578Z,18.80
2019-04-30T22:55:06.125Z,19.47
2019-04-30T22:57:35.398Z,21.60
2019-04-30T23:00:09.569Z,21.73
2019-04-30T23:02:47.681Z,20.87
2019-04-30T23:05:17.678Z,19.73
2019-04-30T23:07:46.892Z,22.67
2019-04-30T23:10:17.901Z,19.77
2019-04-30T23:12:47.271Z,21.37
2019-04-30T23:15:18.762Z,18.80
2019-04-30T23:17:47.914Z,19.43
2019-04-30T23:20:17.697Z,19.80
2019-04-30T23:22:47.016Z,21.77
2019-04-30T23:25:16.205Z,20.67
2019-04-30T23:27:45.420Z,20.60
2019-04-30T23:30:14.667Z,20.00
2019-04-30T23:32:44.684Z,20.40
2019-04-30T23:35:13.969Z,21.73
2019-04-30T23:37:43.272Z,22.63
2019-04-30T23:40:25.976Z,21.50
2019-04-30T23:42:55.439Z,20.63
2019-04-30T23:45:24.595Z,20.20
2019-04-30T23:47:53.745Z,19.97
2019-04-30T23:50:22.952Z,21.87
2019-04-30T23:52:52.210Z,20.70
2019-04-30T23:55:21.337Z,21.63
2019-04-30T23:57:50.474Z,19.83
